createdAt,value
2023-01-05T00:00:54.962Z,47.05
2023-01-05T00:03:22.032Z,42.10
2023-01-05T00:05:48.765Z,47.45
2023-01-05T00:08:15.470Z,40.33
2023-01-05T00:10:42.295Z,42.85
2023-01-05T00:13:09.437Z,46.20
2023-01-05T00:15:37.054Z,35.70
2023-01-05T00:18:05.408Z,37.28
2023-01-05T00:20:32.104Z,52.85
2023-01-05T00:23:00.256Z,46.88
2023-01-05T00:25:28.636Z,42.15
2023-01-05T00:27:55.801Z,48.33
2023-01-05T00:30:26.023Z,38.80
2023-01-05T00:32:53.195Z,39.95
2023-01-05T00:35:22.531Z,37.72
2023-01-05T00:37:49.632Z,41.60
2023-01-05T00:40:18.521Z,38.65
2023-01-05T00:42:45.687Z,40.72
2023-01-05T00:45:15.168Z,35.95
2023-01-05T00:47:42.599Z,33.53
2023-01-05T00:50:10.643Z,43.30
2023-01-05T00:52:38.814Z,32.28
2023-01-05T00:55:06.905Z,40.42
2023-01-05T00:57:34.342Z,36.17
2023-01-05T01:00:01.014Z,32.38
2023-01-05T01:02:28.164Z,42.22
2023-01-05T01:04:54.918Z,36.33
2023-01-05T01:07:22.197Z,36.30
2023-01-05T01:09:50.476Z,35.67
2023-01-05T01:12:17.237Z,34.22
2023-01-05T01:14:49.894Z,30.88
2023-01-05T01:17:17.597Z,37.60
2023-01-05T01:19:44.634Z,26.83
2023-01-05T01:22:11.671Z,33.95
2023-01-05T01:24:38.392Z,29.92
2023-01-05T01:27:06.906Z,46.35
2023-01-05T01:29:33.773Z,37.63
2023-01-05T01:32:00.795Z,36.20
2023-01-05T01:34:27.762Z,29.50
2023-01-05T01:36:55.256Z,30.77
2023-01-05T01:39:23.575Z,28.45
2023-01-05T01:41:50.699Z,41.28
2023-01-05T01:44:51.651Z,29.85
2023-01-05T01:47:23.438Z,26.80
2023-01-05T01:49:58.446Z,34.78
2023-01-05T01:52:27.599Z,35.15
2023-01-05T01:54:55.907Z,30.05
2023-01-05T01:57:26.369Z,29.20
2023-01-05T01:59:55.829Z,29.58
2023-01-05T02:02:23.273Z,45.92
2023-01-05T02:04:51.266Z,43.65
2023-01-05T02:07:18.072Z,36.08
2023-01-05T02:09:45.609Z,30.45
2023-01-05T02:12:26.233Z,30.00
2023-01-05T02:15:06.973Z,41.67
2023-01-05T02:17:49.432Z,31.05
2023-01-05T02:20:46.902Z,33.33
2023-01-05T02:23:46.314Z,30.83
2023-01-05T02:27:01.562Z,30.88
2023-01-05T02:29:51.854Z,32.63
2023-01-05T02:32:23.353Z,36.85
2023-01-05T02:35:03.061Z,22.25
2023-01-05T02:37:36.762Z,34.70
2023-01-05T02:40:10.570Z,30.02
2023-01-05T02:42:39.912Z,25.05
2023-01-05T02:45:08.714Z,35.80
2023-01-05T02:47:39.248Z,31.70
2023-01-05T02:50:10.657Z,33.50
2023-01-05T02:52:43.039Z,24.65
2023-01-05T02:55:13.316Z,36.85
2023-01-05T02:57:44.892Z,41.60
2023-01-05T03:00:16.720Z,38.03
2023-01-05T03:02:49.868Z,30.63
2023-01-05T03:05:23.106Z,44.40
2023-01-05T03:07:51.737Z,39.55
2023-01-05T03:10:18.895Z,37.10
2023-01-05T03:12:46.408Z,40.25
2023-01-05T03:15:19.234Z,37.75
2023-01-05T03:17:50.290Z,36.05
2023-01-05T03:20:21.428Z,49.20
2023-01-05T03:22:49.166Z,37.58
2023-01-05T03:25:19.931Z,28.80
2023-01-05T03:27:48.061Z,47.63
2023-01-05T03:30:16.344Z,30.75
2023-01-05T03:32:51.101Z,40.42
2023-01-05T03:35:21.875Z,41.30
2023-01-05T03:37:55.637Z,51.30
2023-01-05T03:40:26.227Z,42.53
2023-01-05T03:42:55.021Z,48.00
2023-01-05T03:45:22.823Z,40.85
2023-01-05T03:47:51.931Z,33.65
2023-01-05T03:50:18.895Z,41.35
2023-01-05T03:52:45.848Z,28.08
2023-01-05T03:55:12.786Z,31.52
2023-01-05T03:57:39.435Z,43.85
2023-01-05T04:00:07.874Z,35.35
2023-01-05T04:02:34.849Z,38.03
2023-01-05T04:05:03.037Z,30.15
2023-01-05T04:07:29.878Z,37.72
2023-01-05T04:09:56.657Z,26.10
2023-01-05T04:12:23.440Z,33.95
2023-01-05T04:14:50.342Z,28.98
2023-01-05T04:17:17.147Z,38.90
2023-01-05T04:19:43.854Z,39.78
2023-01-05T04:22:12.223Z,26.88
2023-01-05T04:24:39.280Z,28.45
2023-01-05T04:27:06.003Z,32.58
2023-01-05T04:29:33.022Z,29.58
2023-01-05T04:31:59.686Z,29.67
2023-01-05T04:34:26.484Z,34.72
2023-01-05T04:36:53.257Z,26.50
2023-01-05T04:39:21.534Z,34.47
2023-01-05T04:41:48.527Z,44.10
2023-01-05T04:44:15.303Z,33.53
2023-01-05T04:46:42.109Z,40.05
2023-01-05T04:49:09.918Z,33.00
2023-01-05T04:51:37.010Z,34.75
2023-01-05T04:54:06.054Z,41.78
2023-01-05T04:56:34.989Z,35.13
2023-01-05T04:59:01.743Z,42.03
2023-01-05T05:01:28.578Z,29.33
2023-01-05T05:03:55.351Z,29.83
2023-01-05T05:06:23.160Z,37.40
2023-01-05T05:08:52.486Z,26.63
2023-01-05T05:11:20.590Z,44.20
2023-01-05T05:13:48.765Z,37.38
2023-01-05T05:16:15.816Z,31.45
2023-01-05T05:18:42.550Z,38.45
2023-01-05T05:21:09.339Z,30.88
2023-01-05T05:23:36.518Z,37.47
2023-01-05T05:26:03.411Z,33.15
2023-01-05T05:28:32.434Z,30.23
2023-01-05T05:31:00.701Z,38.50
2023-01-05T05:33:27.421Z,36.75
2023-01-05T05:35:54.408Z,29.63
2023-01-05T05:38:21.430Z,32.67
2023-01-05T05:40:49.211Z,31.70
2023-01-05T05:43:15.980Z,34.05
2023-01-05T05:45:49.704Z,38.22
2023-01-05T05:48:19.046Z,39.55
2023-01-05T05:50:46.189Z,36.30
2023-01-05T05:53:13.366Z,39.78
2023-01-05T05:55:41.323Z,33.38
2023-01-05T05:58:08.385Z,35.70
2023-01-05T06:00:36.374Z,35.72
2023-01-05T06:03:03.244Z,35.55
2023-01-05T06:05:31.591Z,46.45
2023-01-05T06:07:58.627Z,31.75
2023-01-05T06:10:25.906Z,38.67
2023-01-05T06:12:53.538Z,38.17
2023-01-05T06:15:20.774Z,40.20
2023-01-05T06:17:49.191Z,38.88
2023-01-05T06:20:16.864Z,35.53
2023-01-05T06:22:45.081Z,35.22
2023-01-05T06:25:12.376Z,25.63
2023-01-05T06:27:39.223Z,27.38
2023-01-05T06:30:07.207Z,28.85
2023-01-05T06:32:34.362Z,30.60
2023-01-05T06:35:01.281Z,29.63
2023-01-05T06:37:28.467Z,28.98
2023-01-05T06:39:56.699Z,31.00
2023-01-05T06:42:24.105Z,28.50
2023-01-05T06:44:51.348Z,28.90
2023-01-05T06:47:20.659Z,29.13
2023-01-05T06:49:47.377Z,33.13
2023-01-05T06:52:16.645Z,40.70
2023-01-05T06:54:44.252Z,27.45
2023-01-05T06:57:12.719Z,28.33
2023-01-05T06:59:39.917Z,27.77
2023-01-05T07:02:09.368Z,26.92
2023-01-05T07:04:36.503Z,28.98
2023-01-05T07:07:03.270Z,35.00
2023-01-05T07:09:30.238Z,39.47
2023-01-05T07:11:57.098Z,31.95
2023-01-05T07:14:25.544Z,32.95
2023-01-05T07:16:52.409Z,29.65
2023-01-05T07:19:20.406Z,23.80
2023-01-05T07:21:50.575Z,29.65
2023-01-05T07:24:21.815Z,29.45
2023-01-05T07:26:48.758Z,37.10
2023-01-05T07:29:15.681Z,28.70
2023-01-05T07:31:43.933Z,28.30
2023-01-05T07:34:11.068Z,25.77
2023-01-05T07:36:37.732Z,33.35
2023-01-05T07:39:04.722Z,30.40
2023-01-05T07:41:32.950Z,34.03
2023-01-05T07:44:00.162Z,28.95
2023-01-05T07:46:27.362Z,32.80
2023-01-05T07:48:55.814Z,34.67
2023-01-05T07:51:23.040Z,31.05
2023-01-05T07:53:49.903Z,24.08
2023-01-05T07:56:16.725Z,27.10
2023-01-05T07:58:43.485Z,35.13
2023-01-05T08:01:12.502Z,33.60
2023-01-05T08:03:39.617Z,26.45
2023-01-05T08:06:11.742Z,31.27
2023-01-05T08:08:38.816Z,30.10
2023-01-05T08:11:07.360Z,23.67
2023-01-05T08:13:34.599Z,30.65
2023-01-05T08:16:01.788Z,28.08
2023-01-05T08:18:29.054Z,19.55
2023-01-05T08:20:59.254Z,32.03
2023-01-05T08:23:28.529Z,28.48
2023-01-05T08:25:55.626Z,26.13
2023-01-05T08:28:22.706Z,24.75
2023-01-05T08:30:49.463Z,32.55
2023-01-05T08:33:16.623Z,32.20
2023-01-05T08:35:44.830Z,31.38
2023-01-05T08:38:13.034Z,35.58
2023-01-05T08:40:41.035Z,28.80
2023-01-05T08:43:07.884Z,34.50
2023-01-05T08:45:34.884Z,29.05
2023-01-05T08:48:02.152Z,38.17
2023-01-05T08:50:29.872Z,26.52
2023-01-05T08:52:58.436Z,29.88
2023-01-05T08:55:27.546Z,28.45
2023-01-05T08:57:56.287Z,24.73
2023-01-05T09:00:23.280Z,25.55
2023-01-05T09:02:50.164Z,27.50
2023-01-05T09:05:17.506Z,33.58
2023-01-05T09:07:44.619Z,26.33
2023-01-05T09:10:11.603Z,28.02
2023-01-05T09:12:39.089Z,25.85
2023-01-05T09:15:08.353Z,37.80
2023-01-05T09:17:35.274Z,37.00
2023-01-05T09:20:02.762Z,30.15
2023-01-05T09:22:32.297Z,28.20
2023-01-05T09:24:59.052Z,30.38
2023-01-05T09:27:25.796Z,22.17
2023-01-05T09:29:52.549Z,26.77
2023-01-05T09:32:21.298Z,28.23
2023-01-05T09:34:48.015Z,33.08
2023-01-05T09:37:15.120Z,36.15
2023-01-05T09:39:42.910Z,32.65
2023-01-05T09:42:14.655Z,33.35
2023-01-05T09:44:46.584Z,36.72
2023-01-05T09:47:17.987Z,25.58
2023-01-05T09:52:14.807Z,37.03
2023-01-05T09:54:42.599Z,29.45
2023-01-05T09:57:18.667Z,34.45
2023-01-05T09:59:49.040Z,30.95
2023-01-05T10:02:25.521Z,26.83
2023-01-05T10:04:55.456Z,25.60
2023-01-05T10:07:45.220Z,26.25
2023-01-05T10:10:30.079Z,22.95
2023-01-05T10:13:00.188Z,23.80
2023-01-05T10:15:28.018Z,19.13
2023-01-05T10:17:55.074Z,33.22
2023-01-05T10:20:32.272Z,30.45
2023-01-05T10:23:10.669Z,22.35
2023-01-05T10:25:43.753Z,20.00
2023-01-05T10:28:27.187Z,22.63
2023-01-05T10:30:58.868Z,34.05
2023-01-05T10:33:51.627Z,26.75
2023-01-05T10:37:07.542Z,24.55
2023-01-05T10:40:02.242Z,24.60
2023-01-05T10:42:51.847Z,19.27
2023-01-05T10:45:20.455Z,22.10
2023-01-05T10:47:49.559Z,21.85
2023-01-05T10:50:35.866Z,25.83
2023-01-05T10:53:11.703Z,24.83
2023-01-05T10:55:54.948Z,24.77
2023-01-05T10:58:23.302Z,32.97
2023-01-05T11:00:52.506Z,25.90
2023-01-05T11:03:39.938Z,23.38
2023-01-05T11:06:20.181Z,26.83
2023-01-05T11:08:48.773Z,36.50
2023-01-05T11:11:22.249Z,26.60
2023-01-05T11:13:50.482Z,33.80
2023-01-05T11:16:19.846Z,32.42
2023-01-05T11:18:49.749Z,25.55
2023-01-05T11:21:21.708Z,26.17
2023-01-05T11:23:52.487Z,25.38
2023-01-05T11:26:29.117Z,25.45
2023-01-05T11:29:09.907Z,27.02
2023-01-05T11:31:39.404Z,29.10
2023-01-05T11:34:13.912Z,30.45
2023-01-05T11:36:41.856Z,25.67
2023-01-05T11:39:20.594Z,22.42
2023-01-05T11:41:48.325Z,28.10
2023-01-05T11:44:24.291Z,21.95
2023-01-05T11:46:51.624Z,27.13
2023-01-05T11:49:19.563Z,25.58
2023-01-05T11:51:46.305Z,33.50
2023-01-05T11:54:33.048Z,24.52
2023-01-05T11:57:14.598Z,30.80
2023-01-05T11:59:41.788Z,23.42
2023-01-05T12:02:33.757Z,23.48
2023-01-05T12:05:18.108Z,28.33
2023-01-05T12:07:52.428Z,27.17
2023-01-05T12:10:49.037Z,21.35
2023-01-05T12:13:42.311Z,28.00
2023-01-05T12:16:23.848Z,19.92
2023-01-05T12:19:06.729Z,21.88
2023-01-05T12:21:37.877Z,24.70
2023-01-05T12:24:54.908Z,25.15
2023-01-05T12:27:37.958Z,22.63
2023-01-05T12:32:26.402Z,16.08
2023-01-05T12:34:01.711Z,22.27
2023-01-05T12:36:31.618Z,38.00
2023-01-05T12:39:12.123Z,25.70
2023-01-05T12:42:04.230Z,26.48
2023-01-05T12:44:51.133Z,24.23
2023-01-05T12:47:35.668Z,26.92
2023-01-05T12:50:13.205Z,32.92
2023-01-05T12:52:45.596Z,25.48
2023-01-05T12:55:20.407Z,21.55
2023-01-05T12:57:50.746Z,29.67
2023-01-05T13:00:27.368Z,30.67
2023-01-05T13:02:58.517Z,25.58
2023-01-05T13:05:31.501Z,23.73
2023-01-05T13:08:06.572Z,30.90
2023-01-05T13:10:39.470Z,30.15
2023-01-05T13:13:13.268Z,31.80
2023-01-05T13:15:46.363Z,38.45
2023-01-05T13:18:18.408Z,29.25
2023-01-05T13:20:50.917Z,30.40
2023-01-05T13:23:23.321Z,26.15
2023-01-05T13:25:56.011Z,31.95
2023-01-05T13:28:25.893Z,26.85
2023-01-05T13:31:43.488Z,22.80
2023-01-05T13:34:47.548Z,37.78
2023-01-05T13:40:32.607Z,35.13
2023-01-05T13:43:20.281Z,28.75
2023-01-05T13:46:14.843Z,31.38
2023-01-05T13:49:03.976Z,26.73
2023-01-05T13:51:48.692Z,27.52
2023-01-05T13:54:20.260Z,32.25
2023-01-05T13:56:48.745Z,38.33
2023-01-05T13:59:34.550Z,30.65
2023-01-05T14:02:04.129Z,19.55
2023-01-05T14:04:33.697Z,27.52
2023-01-05T14:07:06.632Z,32.13
2023-01-05T14:09:38.237Z,24.83
2023-01-05T14:12:40.429Z,25.98
2023-01-05T14:15:31.365Z,28.42
2023-01-05T14:18:00.173Z,34.63
2023-01-05T14:20:32.747Z,34.35
2023-01-05T14:23:02.696Z,34.40
2023-01-05T14:25:47.250Z,29.45
2023-01-05T14:28:41.889Z,33.28
2023-01-05T14:31:45.938Z,30.77
2023-01-05T14:34:18.709Z,31.27
2023-01-05T14:36:52.303Z,30.02
2023-01-05T14:39:31.339Z,32.95
2023-01-05T14:42:03.575Z,28.48
2023-01-05T14:44:34.853Z,28.48
2023-01-05T14:47:02.684Z,34.05
2023-01-05T14:49:35.529Z,37.13
2023-01-05T14:52:04.290Z,26.30
2023-01-05T14:55:21.854Z,30.70
2023-01-05T14:57:56.308Z,27.10
2023-01-05T15:00:35.121Z,33.08
2023-01-05T15:03:12.649Z,33.85
2023-01-05T15:05:46.826Z,25.10
2023-01-05T15:08:26.408Z,35.45
2023-01-05T15:11:18.106Z,35.22
2023-01-05T15:16:33.395Z,33.60
2023-01-05T15:19:21.273Z,32.83
2023-01-05T15:22:18.475Z,28.25
2023-01-05T15:25:12.122Z,38.17
2023-01-05T15:28:03.423Z,32.42
2023-01-05T15:30:49.788Z,32.10
2023-01-05T15:33:24.468Z,41.92
2023-01-05T15:35:55.501Z,51.42
2023-01-05T15:38:24.144Z,38.88
2023-01-05T15:40:59.566Z,37.47
2023-01-05T15:43:28.018Z,33.38
2023-01-05T15:45:54.883Z,31.05
2023-01-05T15:48:28.800Z,43.80
2023-01-05T15:50:57.887Z,31.80
2023-01-05T15:53:28.947Z,45.58
2023-01-05T15:55:56.733Z,32.35
2023-01-05T15:58:25.871Z,34.15
2023-01-05T16:01:06.703Z,45.70
2023-01-05T16:03:36.905Z,33.10
2023-01-05T16:06:07.744Z,52.70
2023-01-05T16:08:39.988Z,35.78
2023-01-05T16:11:10.041Z,34.15
2023-01-05T16:13:42.713Z,41.85
2023-01-05T16:16:43.269Z,36.72
2023-01-05T16:19:12.055Z,32.63
2023-01-05T16:21:43.145Z,44.42
2023-01-05T16:24:18.904Z,38.72
2023-01-05T16:26:45.713Z,38.33
2023-01-05T16:29:34.236Z,40.33
2023-01-05T16:32:02.569Z,38.47
2023-01-05T16:34:32.501Z,46.85
2023-01-05T16:37:04.535Z,42.85
2023-01-05T16:39:37.490Z,40.65
2023-01-05T16:42:10.435Z,33.92
2023-01-05T16:44:37.203Z,29.10
2023-01-05T16:47:07.171Z,35.58
2023-01-05T16:49:41.231Z,40.80
2023-01-05T16:52:23.872Z,44.70
2023-01-05T16:55:27.157Z,49.92
2023-01-05T16:57:54.855Z,40.75
2023-01-05T17:00:37.079Z,51.35
2023-01-05T17:03:27.094Z,38.78
2023-01-05T17:05:55.304Z,41.92
2023-01-05T17:08:24.288Z,54.05
2023-01-05T17:10:51.100Z,44.08
2023-01-05T17:13:21.022Z,49.03
2023-01-05T17:15:49.426Z,49.63
2023-01-05T17:18:20.037Z,48.45
2023-01-05T17:20:47.794Z,53.70
2023-01-05T17:23:21.337Z,50.13
2023-01-05T17:25:48.571Z,41.75
2023-01-05T17:28:15.685Z,56.55
2023-01-05T17:30:43.818Z,61.83
2023-01-05T17:33:10.704Z,54.38
2023-01-05T17:35:40.369Z,44.65
2023-01-05T17:38:07.262Z,64.63
2023-01-05T17:40:34.176Z,50.92
2023-01-05T17:43:01.057Z,49.15
2023-01-05T17:45:27.768Z,61.78
2023-01-05T17:47:55.172Z,46.08
2023-01-05T17:50:24.361Z,63.72
2023-01-05T17:52:53.970Z,59.88
2023-01-05T17:55:21.639Z,55.40
2023-01-05T17:57:48.952Z,59.03
2023-01-05T18:00:19.493Z,64.88
2023-01-05T18:02:49.273Z,57.05
2023-01-05T18:05:16.499Z,67.93
2023-01-05T18:07:43.929Z,48.38
2023-01-05T18:10:15.911Z,70.13
2023-01-05T18:12:43.144Z,62.60
2023-01-05T18:15:14.123Z,49.03
2023-01-05T18:17:41.655Z,55.13
2023-01-05T18:20:10.520Z,63.05
2023-01-05T18:22:38.616Z,59.55
2023-01-05T18:27:34.726Z,61.58
2023-01-05T18:30:01.639Z,51.63
2023-01-05T18:34:56.995Z,39.70
2023-01-05T18:37:23.700Z,39.00
2023-01-05T18:39:50.610Z,47.35
2023-01-05T18:42:17.752Z,43.13
2023-01-05T18:44:45.836Z,38.42
2023-01-05T18:47:12.696Z,45.42
2023-01-05T18:49:39.704Z,43.08
2023-01-05T18:52:09.692Z,33.03
2023-01-05T18:54:36.457Z,44.35
2023-01-05T18:57:03.335Z,35.95
2023-01-05T18:59:31.975Z,33.50
2023-01-05T19:02:00.446Z,44.50
2023-01-05T19:04:27.478Z,41.83
2023-01-05T19:06:55.280Z,35.92
2023-01-05T19:09:21.999Z,44.35
2023-01-05T19:11:49.021Z,36.53
2023-01-05T19:14:16.243Z,39.60
2023-01-05T19:16:43.523Z,39.88
2023-01-05T19:19:13.105Z,31.25
2023-01-05T19:21:41.952Z,33.38
2023-01-05T19:24:15.629Z,30.33
2023-01-05T19:26:43.347Z,33.53
2023-01-05T19:29:12.197Z,38.08
2023-01-05T19:31:39.800Z,41.95
2023-01-05T19:34:06.484Z,35.38
2023-01-05T19:36:35.330Z,40.38
2023-01-05T19:39:04.061Z,38.33
2023-01-05T19:41:31.268Z,42.55
2023-01-05T19:43:58.217Z,51.83
2023-01-05T19:46:27.253Z,51.58
2023-01-05T19:48:54.595Z,51.70
2023-01-05T19:51:23.189Z,57.13
2023-01-05T19:53:55.247Z,48.25
2023-01-05T19:56:23.525Z,65.05
2023-01-05T19:58:55.989Z,60.65
2023-01-05T20:01:27.023Z,62.97
2023-01-05T20:03:55.000Z,65.07
2023-01-05T20:06:23.995Z,56.08
2023-01-05T20:08:54.117Z,61.97
2023-01-05T20:11:24.187Z,50.25
2023-01-05T20:13:51.395Z,60.72
2023-01-05T20:16:18.893Z,52.58
2023-01-05T20:18:46.055Z,54.08
2023-01-05T20:21:12.768Z,64.05
2023-01-05T20:23:41.602Z,64.72
2023-01-05T20:26:11.742Z,52.80
2023-01-05T20:28:38.814Z,52.08
2023-01-05T20:31:14.546Z,49.17
2023-01-05T20:33:44.082Z,55.28
2023-01-05T20:36:10.864Z,51.25
2023-01-05T20:38:37.837Z,51.05
2023-01-05T20:41:14.850Z,49.78
2023-01-05T20:43:43.173Z,50.63
2023-01-05T20:46:10.373Z,47.45
2023-01-05T20:48:37.109Z,57.17
2023-01-05T20:51:05.203Z,45.92
2023-01-05T20:53:32.056Z,59.65
2023-01-05T20:55:59.332Z,49.83
2023-01-05T20:58:27.801Z,48.75
2023-01-05T21:01:10.432Z,40.88
2023-01-05T21:03:39.040Z,53.22
2023-01-05T21:06:07.083Z,51.03
2023-01-05T21:08:33.869Z,45.20
2023-01-05T21:11:01.737Z,48.03
2023-01-05T21:13:30.504Z,55.20
2023-01-05T21:16:01.046Z,52.05
2023-01-05T21:18:28.217Z,54.83
2023-01-05T21:20:54.945Z,56.40
2023-01-05T21:23:21.975Z,54.42
2023-01-05T21:26:06.584Z,55.70
2023-01-05T21:28:36.503Z,58.58
2023-01-05T21:31:04.804Z,59.72
2023-01-05T21:33:32.146Z,63.17
2023-01-05T21:35:59.099Z,68.13
2023-01-05T21:39:00.962Z,60.53
2023-01-05T21:41:17.387Z,66.18
2023-01-05T21:43:45.532Z,69.93
2023-01-05T21:46:12.401Z,73.82
2023-01-05T21:48:39.197Z,59.65
2023-01-05T21:51:06.430Z,57.78
2023-01-05T21:53:33.377Z,61.67
2023-01-05T21:56:00.419Z,64.53
2023-01-05T21:58:28.714Z,65.63
2023-01-05T22:01:00.264Z,65.90
2023-01-05T22:03:29.715Z,57.10
2023-01-05T22:05:56.741Z,57.85
2023-01-05T22:08:23.485Z,53.17
2023-01-05T22:10:54.166Z,61.47
2023-01-05T22:13:21.580Z,54.85
2023-01-05T22:15:48.404Z,54.22
2023-01-05T22:18:16.803Z,57.55
2023-01-05T22:20:44.675Z,62.53
2023-01-05T22:23:11.857Z,47.67
2023-01-05T22:25:38.635Z,54.45
2023-01-05T22:28:05.881Z,42.65
2023-01-05T22:30:33.773Z,62.80
2023-01-05T22:33:01.684Z,54.47
2023-01-05T22:35:30.073Z,48.72
2023-01-05T22:37:56.798Z,45.13
2023-01-05T22:40:23.507Z,42.03
2023-01-05T22:42:50.350Z,56.03
2023-01-05T22:45:17.152Z,43.95
2023-01-05T22:47:43.941Z,41.00
2023-01-05T22:50:13.633Z,32.90
2023-01-05T22:52:41.725Z,47.83
2023-01-05T22:55:09.399Z,48.92
2023-01-05T22:57:36.251Z,47.25
2023-01-05T23:00:03.901Z,47.15
2023-01-05T23:02:31.014Z,47.30
2023-01-05T23:04:58.096Z,50.17
2023-01-05T23:07:24.742Z,40.55
2023-01-05T23:09:52.793Z,50.53
2023-01-05T23:12:19.695Z,39.40
2023-01-05T23:14:46.379Z,48.03
2023-01-05T23:17:13.360Z,42.22
2023-01-05T23:19:40.073Z,43.53
2023-01-05T23:22:06.799Z,47.90
2023-01-05T23:24:33.493Z,40.08
2023-01-05T23:27:01.701Z,46.72
2023-01-05T23:29:28.819Z,50.42
2023-01-05T23:31:55.593Z,40.05
2023-01-05T23:34:22.685Z,39.78
2023-01-05T23:36:50.681Z,53.38
2023-01-05T23:39:17.396Z,50.78
2023-01-05T23:41:44.246Z,51.42
2023-01-05T23:44:12.436Z,55.97
2023-01-05T23:46:39.085Z,43.80
2023-01-05T23:49:06.056Z,51.75
2023-01-05T23:51:32.844Z,50.72
2023-01-05T23:54:00.149Z,40.67
2023-01-05T23:56:29.008Z,46.58
2023-01-05T23:58:59.891Z,37.50
